Terminal Aerodrome Forecast
Issued by NWS

Home | Current Version | Previous Version | Text Only | Print | Product List | Glossary On
Versions: 1 2 3 4 5 6 7 8 9 10 11 12 13 14 15 16 17 18 19 20 21
000
FTUS43 KDDC 210700 AAA
TAFGCK
TAF AMD
KGCK 210742Z 2108/2206 19008KT P6SM OVC006
     FM211200 35009KT P6SM SCT009
     FM211400 01015G22KT P6SM FEW050
     FM212100 04011KT P6SM SKC=

USA.gov is the U.S. government's official web portal to all federal, state and local government web resources and services.